sensor_id;sensor_type;location;lat;lon;timestamp;P1;durP1;ratioP1;P2;durP2;ratioP2
67597;SDS011;62026;39.230;9.122;2023-09-30T00:01:21;4.88;;;1.88;;
67597;SDS011;62026;39.230;9.122;2023-09-30T00:03:47;5.05;;;1.95;;
67597;SDS011;62026;39.230;9.122;2023-09-30T00:06:13;4.57;;;1.67;;
67597;SDS011;62026;39.230;9.122;2023-09-30T00:08:39;5.78;;;1.73;;
67597;SDS011;62026;39.230;9.122;2023-09-30T00:11:07;7.65;;;1.80;;
67597;SDS011;62026;39.230;9.122;2023-09-30T00:13:33;4.32;;;1.90;;
67597;SDS011;62026;39.230;9.122;2023-09-30T00:15:59;4.25;;;1.70;;
67597;SDS011;62026;39.230;9.122;2023-09-30T00:18:25;7.03;;;1.88;;
67597;SDS011;62026;39.230;9.122;2023-09-30T00:20:52;5.97;;;1.80;;
67597;SDS011;62026;39.230;9.122;2023-09-30T00:23:18;3.03;;;1.80;;
67597;SDS011;62026;39.230;9.122;2023-09-30T00:25:46;5.03;;;1.88;;
67597;SDS011;62026;39.230;9.122;2023-09-30T00:28:15;5.70;;;1.83;;
67597;SDS011;62026;39.230;9.122;2023-09-30T00:30:41;6.70;;;2.00;;
67597;SDS011;62026;39.230;9.122;2023-09-30T00:33:08;3.40;;;2.15;;
67597;SDS011;62026;39.230;9.122;2023-09-30T00:35:34;4.25;;;1.90;;
67597;SDS011;62026;39.230;9.122;2023-09-30T00:38:01;3.60;;;1.92;;
67597;SDS011;62026;39.230;9.122;2023-09-30T00:40:27;7.00;;;2.00;;
67597;SDS011;62026;39.230;9.122;2023-09-30T00:42:53;5.57;;;2.08;;
67597;SDS011;62026;39.230;9.122;2023-09-30T00:45:19;6.03;;;2.17;;
67597;SDS011;62026;39.230;9.122;2023-09-30T00:47:46;4.30;;;2.03;;
67597;SDS011;62026;39.230;9.122;2023-09-30T00:50:12;4.13;;;2.10;;
67597;SDS011;62026;39.230;9.122;2023-09-30T00:52:39;6.32;;;2.30;;
67597;SDS011;62026;39.230;9.122;2023-09-30T00:55:06;6.22;;;2.20;;
67597;SDS011;62026;39.230;9.122;2023-09-30T00:57:34;5.45;;;2.03;;
67597;SDS011;62026;39.230;9.122;2023-09-30T01:00:02;11.27;;;2.22;;
67597;SDS011;62026;39.230;9.122;2023-09-30T01:02:28;6.82;;;2.35;;
67597;SDS011;62026;39.230;9.122;2023-09-30T01:04:54;4.25;;;1.98;;
67597;SDS011;62026;39.230;9.122;2023-09-30T01:07:21;4.70;;;2.28;;
67597;SDS011;62026;39.230;9.122;2023-09-30T01:09:47;7.05;;;2.17;;
67597;SDS011;62026;39.230;9.122;2023-09-30T01:12:14;3.63;;;2.00;;
67597;SDS011;62026;39.230;9.122;2023-09-30T01:14:40;7.95;;;1.88;;
67597;SDS011;62026;39.230;9.122;2023-09-30T01:17:07;4.65;;;2.50;;
67597;SDS011;62026;39.230;9.122;2023-09-30T01:19:34;7.68;;;2.38;;
67597;SDS011;62026;39.230;9.122;2023-09-30T01:22:00;6.68;;;2.55;;
67597;SDS011;62026;39.230;9.122;2023-09-30T01:24:31;4.97;;;2.30;;
67597;SDS011;62026;39.230;9.122;2023-09-30T01:27:07;7.25;;;2.28;;
67597;SDS011;62026;39.230;9.122;2023-09-30T01:29:34;7.85;;;2.17;;
67597;SDS011;62026;39.230;9.122;2023-09-30T01:32:03;4.55;;;2.20;;
67597;SDS011;62026;39.230;9.122;2023-09-30T01:34:34;9.38;;;2.33;;
67597;SDS011;62026;39.230;9.122;2023-09-30T01:37:01;4.68;;;2.08;;
67597;SDS011;62026;39.230;9.122;2023-09-30T01:39:27;3.65;;;2.08;;
67597;SDS011;62026;39.230;9.122;2023-09-30T01:41:53;6.20;;;2.67;;
67597;SDS011;62026;39.230;9.122;2023-09-30T01:44:19;4.72;;;2.40;;
67597;SDS011;62026;39.230;9.122;2023-09-30T01:46:45;8.18;;;2.58;;
67597;SDS011;62026;39.230;9.122;2023-09-30T01:49:11;6.45;;;2.45;;
67597;SDS011;62026;39.230;9.122;2023-09-30T01:51:37;5.63;;;2.53;;
67597;SDS011;62026;39.230;9.122;2023-09-30T01:54:03;7.63;;;2.40;;
67597;SDS011;62026;39.230;9.122;2023-09-30T01:56:30;5.55;;;2.50;;
67597;SDS011;62026;39.230;9.122;2023-09-30T01:58:56;8.45;;;2.03;;
67597;SDS011;62026;39.230;9.122;2023-09-30T02:01:22;5.00;;;2.20;;
67597;SDS011;62026;39.230;9.122;2023-09-30T02:03:50;7.30;;;2.38;;
67597;SDS011;62026;39.230;9.122;2023-09-30T02:06:16;5.75;;;2.40;;
67597;SDS011;62026;39.230;9.122;2023-09-30T02:08:43;5.80;;;2.22;;
67597;SDS011;62026;39.230;9.122;2023-09-30T02:11:10;6.90;;;2.20;;
67597;SDS011;62026;39.230;9.122;2023-09-30T02:13:38;4.28;;;2.17;;
67597;SDS011;62026;39.230;9.122;2023-09-30T02:16:10;4.93;;;2.40;;
67597;SDS011;62026;39.230;9.122;2023-09-30T02:18:38;8.05;;;2.88;;
67597;SDS011;62026;39.230;9.122;2023-09-30T02:21:06;8.32;;;2.65;;
67597;SDS011;62026;39.230;9.122;2023-09-30T02:23:34;7.65;;;2.42;;
67597;SDS011;62026;39.230;9.122;2023-09-30T02:26:01;6.50;;;2.30;;
67597;SDS011;62026;39.230;9.122;2023-09-30T02:28:28;2.97;;;1.90;;
67597;SDS011;62026;39.230;9.122;2023-09-30T02:30:58;5.80;;;2.35;;
67597;SDS011;62026;39.230;9.122;2023-09-30T02:33:25;6.20;;;2.30;;
67597;SDS011;62026;39.230;9.122;2023-09-30T02:35:52;5.47;;;2.40;;
67597;SDS011;62026;39.230;9.122;2023-09-30T02:38:18;3.35;;;2.17;;
67597;SDS011;62026;39.230;9.122;2023-09-30T02:40:46;3.78;;;2.10;;
67597;SDS011;62026;39.230;9.122;2023-09-30T02:43:13;4.72;;;2.60;;
67597;SDS011;62026;39.230;9.122;2023-09-30T02:45:39;5.25;;;2.33;;
67597;SDS011;62026;39.230;9.122;2023-09-30T02:48:05;4.97;;;2.30;;
67597;SDS011;62026;39.230;9.122;2023-09-30T02:50:31;6.35;;;2.20;;
67597;SDS011;62026;39.230;9.122;2023-09-30T02:52:59;5.93;;;2.58;;
67597;SDS011;62026;39.230;9.122;2023-09-30T02:55:25;8.55;;;2.20;;
67597;SDS011;62026;39.230;9.122;2023-09-30T02:57:51;7.75;;;2.30;;
67597;SDS011;62026;39.230;9.122;2023-09-30T03:00:18;4.30;;;2.50;;
67597;SDS011;62026;39.230;9.122;2023-09-30T03:02:54;5.35;;;2.15;;
67597;SDS011;62026;39.230;9.122;2023-09-30T03:05:21;3.60;;;2.28;;
67597;SDS011;62026;39.230;9.122;2023-09-30T03:07:48;3.80;;;2.40;;
67597;SDS011;62026;39.230;9.122;2023-09-30T03:10:18;3.25;;;2.10;;
67597;SDS011;62026;39.230;9.122;2023-09-30T03:12:58;10.13;;;2.77;;
67597;SDS011;62026;39.230;9.122;2023-09-30T03:15:27;6.88;;;2.47;;
67597;SDS011;62026;39.230;9.122;2023-09-30T03:17:56;5.50;;;2.35;;
67597;SDS011;62026;39.230;9.122;2023-09-30T03:20:23;7.20;;;2.88;;
67597;SDS011;62026;39.230;9.122;2023-09-30T03:22:50;4.82;;;2.70;;
67597;SDS011;62026;39.230;9.122;2023-09-30T03:25:17;10.68;;;2.70;;
67597;SDS011;62026;39.230;9.122;2023-09-30T03:27:46;4.63;;;2.30;;
67597;SDS011;62026;39.230;9.122;2023-09-30T03:30:13;8.50;;;2.67;;
67597;SDS011;62026;39.230;9.122;2023-09-30T03:32:41;3.22;;;2.15;;
67597;SDS011;62026;39.230;9.122;2023-09-30T03:35:08;4.72;;;2.65;;
67597;SDS011;62026;39.230;9.122;2023-09-30T03:37:39;8.75;;;2.58;;
67597;SDS011;62026;39.230;9.122;2023-09-30T03:40:06;3.00;;;2.10;;
67597;SDS011;62026;39.230;9.122;2023-09-30T03:42:42;7.07;;;2.50;;
67597;SDS011;62026;39.230;9.122;2023-09-30T03:45:09;10.40;;;2.80;;
67597;SDS011;62026;39.230;9.122;2023-09-30T03:47:39;7.07;;;2.30;;
67597;SDS011;62026;39.230;9.122;2023-09-30T03:50:07;8.68;;;2.70;;
67597;SDS011;62026;39.230;9.122;2023-09-30T03:52:40;6.88;;;2.40;;
67597;SDS011;62026;39.230;9.122;2023-09-30T03:55:11;5.47;;;2.70;;
67597;SDS011;62026;39.230;9.122;2023-09-30T03:57:40;6.47;;;2.40;;
67597;SDS011;62026;39.230;9.122;2023-09-30T04:00:07;6.95;;;2.72;;
67597;SDS011;62026;39.230;9.122;2023-09-30T04:02:41;5.70;;;2.58;;
67597;SDS011;62026;39.230;9.122;2023-09-30T04:05:08;4.05;;;2.40;;
67597;SDS011;62026;39.230;9.122;2023-09-30T04:07:36;5.25;;;2.72;;
67597;SDS011;62026;39.230;9.122;2023-09-30T04:10:02;5.75;;;2.42;;
67597;SDS011;62026;39.230;9.122;2023-09-30T04:12:29;6.47;;;2.40;;
67597;SDS011;62026;39.230;9.122;2023-09-30T04:14:58;5.50;;;2.63;;
67597;SDS011;62026;39.230;9.122;2023-09-30T04:17:24;6.10;;;2.53;;
67597;SDS011;62026;39.230;9.122;2023-09-30T04:19:52;7.38;;;3.10;;
67597;SDS011;62026;39.230;9.122;2023-09-30T04:22:18;5.50;;;2.90;;
67597;SDS011;62026;39.230;9.122;2023-09-30T04:24:46;8.75;;;2.83;;
67597;SDS011;62026;39.230;9.122;2023-09-30T04:27:14;4.70;;;2.60;;
67597;SDS011;62026;39.230;9.122;2023-09-30T04:29:41;7.93;;;3.20;;
67597;SDS011;62026;39.230;9.122;2023-09-30T04:32:08;5.03;;;2.78;;
67597;SDS011;62026;39.230;9.122;2023-09-30T04:34:34;6.93;;;3.00;;
67597;SDS011;62026;39.230;9.122;2023-09-30T04:37:01;6.43;;;3.20;;
67597;SDS011;62026;39.230;9.122;2023-09-30T04:39:27;8.32;;;3.05;;
67597;SDS011;62026;39.230;9.122;2023-09-30T04:41:53;6.45;;;3.10;;
67597;SDS011;62026;39.230;9.122;2023-09-30T04:44:20;5.15;;;3.03;;
67597;SDS011;62026;39.230;9.122;2023-09-30T04:46:48;8.45;;;2.90;;
67597;SDS011;62026;39.230;9.122;2023-09-30T04:49:14;6.10;;;3.00;;
67597;SDS011;62026;39.230;9.122;2023-09-30T04:51:40;6.30;;;3.30;;
67597;SDS011;62026;39.230;9.122;2023-09-30T04:54:06;7.90;;;2.67;;
67597;SDS011;62026;39.230;9.122;2023-09-30T04:56:34;7.93;;;3.38;;
67597;SDS011;62026;39.230;9.122;2023-09-30T04:59:00;8.68;;;2.80;;
67597;SDS011;62026;39.230;9.122;2023-09-30T05:01:27;4.13;;;2.50;;
67597;SDS011;62026;39.230;9.122;2023-09-30T05:03:54;5.28;;;2.80;;
67597;SDS011;62026;39.230;9.122;2023-09-30T05:06:20;7.40;;;2.53;;
67597;SDS011;62026;39.230;9.122;2023-09-30T05:08:46;4.20;;;2.75;;
67597;SDS011;62026;39.230;9.122;2023-09-30T05:11:13;5.90;;;2.90;;
67597;SDS011;62026;39.230;9.122;2023-09-30T05:13:40;8.05;;;2.90;;
67597;SDS011;62026;39.230;9.122;2023-09-30T05:16:06;6.28;;;2.95;;
67597;SDS011;62026;39.230;9.122;2023-09-30T05:18:32;6.88;;;2.90;;
67597;SDS011;62026;39.230;9.122;2023-09-30T05:20:59;6.35;;;2.97;;
67597;SDS011;62026;39.230;9.122;2023-09-30T05:23:26;6.50;;;3.10;;
67597;SDS011;62026;39.230;9.122;2023-09-30T05:25:51;6.13;;;2.90;;
67597;SDS011;62026;39.230;9.122;2023-09-30T05:28:19;12.07;;;3.80;;
67597;SDS011;62026;39.230;9.122;2023-09-30T05:30:46;10.80;;;3.67;;
67597;SDS011;62026;39.230;9.122;2023-09-30T05:33:12;11.73;;;4.05;;
67597;SDS011;62026;39.230;9.122;2023-09-30T05:35:42;8.85;;;4.13;;
67597;SDS011;62026;39.230;9.122;2023-09-30T05:38:08;7.30;;;4.30;;
67597;SDS011;62026;39.230;9.122;2023-09-30T05:40:35;7.97;;;3.65;;
67597;SDS011;62026;39.230;9.122;2023-09-30T05:43:02;7.53;;;3.75;;
67597;SDS011;62026;39.230;9.122;2023-09-30T05:45:31;6.13;;;3.80;;
67597;SDS011;62026;39.230;9.122;2023-09-30T05:48:03;10.82;;;3.53;;
67597;SDS011;62026;39.230;9.122;2023-09-30T05:50:33;7.53;;;3.70;;
67597;SDS011;62026;39.230;9.122;2023-09-30T05:53:01;8.68;;;3.70;;
67597;SDS011;62026;39.230;9.122;2023-09-30T05:55:29;7.88;;;3.60;;
67597;SDS011;62026;39.230;9.122;2023-09-30T05:57:55;7.43;;;3.78;;
67597;SDS011;62026;39.230;9.122;2023-09-30T06:00:21;8.15;;;4.38;;
67597;SDS011;62026;39.230;9.122;2023-09-30T06:02:54;13.02;;;5.28;;
67597;SDS011;62026;39.230;9.122;2023-09-30T06:05:20;12.98;;;5.57;;
67597;SDS011;62026;39.230;9.122;2023-09-30T06:07:52;14.80;;;5.38;;
67597;SDS011;62026;39.230;9.122;2023-09-30T06:10:19;14.88;;;5.55;;
67597;SDS011;62026;39.230;9.122;2023-09-30T06:12:46;10.05;;;4.80;;
67597;SDS011;62026;39.230;9.122;2023-09-30T06:15:13;10.05;;;4.35;;
67597;SDS011;62026;39.230;9.122;2023-09-30T06:17:41;17.65;;;4.22;;
67597;SDS011;62026;39.230;9.122;2023-09-30T06:20:08;9.98;;;4.28;;
67597;SDS011;62026;39.230;9.122;2023-09-30T06:22:42;7.80;;;3.75;;
67597;SDS011;62026;39.230;9.122;2023-09-30T06:25:12;11.02;;;3.85;;
67597;SDS011;62026;39.230;9.122;2023-09-30T06:27:38;8.85;;;3.60;;
67597;SDS011;62026;39.230;9.122;2023-09-30T06:30:05;10.55;;;3.65;;
67597;SDS011;62026;39.230;9.122;2023-09-30T06:32:31;12.13;;;3.83;;
67597;SDS011;62026;39.230;9.122;2023-09-30T06:34:58;8.70;;;3.10;;
67597;SDS011;62026;39.230;9.122;2023-09-30T06:37:25;9.50;;;3.50;;
67597;SDS011;62026;39.230;9.122;2023-09-30T06:39:51;4.80;;;3.13;;
67597;SDS011;62026;39.230;9.122;2023-09-30T06:42:18;8.13;;;3.60;;
67597;SDS011;62026;39.230;9.122;2023-09-30T06:44:44;7.30;;;3.63;;
67597;SDS011;62026;39.230;9.122;2023-09-30T06:47:11;7.80;;;3.40;;
67597;SDS011;62026;39.230;9.122;2023-09-30T06:49:38;8.45;;;3.30;;
67597;SDS011;62026;39.230;9.122;2023-09-30T06:52:04;6.15;;;3.10;;
67597;SDS011;62026;39.230;9.122;2023-09-30T06:54:31;10.13;;;3.17;;
67597;SDS011;62026;39.230;9.122;2023-09-30T06:56:57;6.30;;;3.30;;
67597;SDS011;62026;39.230;9.122;2023-09-30T06:59:23;5.85;;;3.20;;
67597;SDS011;62026;39.230;9.122;2023-09-30T07:01:50;7.68;;;3.10;;
67597;SDS011;62026;39.230;9.122;2023-09-30T07:04:16;7.20;;;3.25;;
67597;SDS011;62026;39.230;9.122;2023-09-30T07:06:42;5.93;;;3.28;;
67597;SDS011;62026;39.230;9.122;2023-09-30T07:09:08;7.40;;;3.08;;
67597;SDS011;62026;39.230;9.122;2023-09-30T07:11:37;11.15;;;3.25;;
67597;SDS011;62026;39.230;9.122;2023-09-30T07:14:03;7.75;;;3.30;;
67597;SDS011;62026;39.230;9.122;2023-09-30T07:16:29;7.35;;;3.30;;
67597;SDS011;62026;39.230;9.122;2023-09-30T07:18:55;7.80;;;3.30;;
67597;SDS011;62026;39.230;9.122;2023-09-30T07:21:22;7.38;;;3.22;;
67597;SDS011;62026;39.230;9.122;2023-09-30T07:23:48;5.72;;;3.10;;
67597;SDS011;62026;39.230;9.122;2023-09-30T07:26:14;11.82;;;3.05;;
67597;SDS011;62026;39.230;9.122;2023-09-30T07:28:40;12.43;;;2.72;;
67597;SDS011;62026;39.230;9.122;2023-09-30T07:31:06;10.15;;;3.20;;
67597;SDS011;62026;39.230;9.122;2023-09-30T07:33:32;4.88;;;2.90;;
67597;SDS011;62026;39.230;9.122;2023-09-30T07:35:58;8.55;;;3.10;;
67597;SDS011;62026;39.230;9.122;2023-09-30T07:38:24;8.95;;;3.35;;
67597;SDS011;62026;39.230;9.122;2023-09-30T07:40:50;7.05;;;3.33;;
67597;SDS011;62026;39.230;9.122;2023-09-30T07:43:15;9.07;;;3.60;;
67597;SDS011;62026;39.230;9.122;2023-09-30T07:45:43;13.20;;;3.55;;
67597;SDS011;62026;39.230;9.122;2023-09-30T07:48:09;9.23;;;3.80;;
67597;SDS011;62026;39.230;9.122;2023-09-30T07:50:38;9.15;;;3.45;;
67597;SDS011;62026;39.230;9.122;2023-09-30T07:53:04;6.20;;;3.58;;
67597;SDS011;62026;39.230;9.122;2023-09-30T07:55:30;7.50;;;3.55;;
67597;SDS011;62026;39.230;9.122;2023-09-30T07:57:56;10.18;;;3.28;;
67597;SDS011;62026;39.230;9.122;2023-09-30T08:00:24;11.52;;;3.45;;
67597;SDS011;62026;39.230;9.122;2023-09-30T08:02:50;6.43;;;3.28;;
67597;SDS011;62026;39.230;9.122;2023-09-30T08:05:16;6.82;;;3.65;;
67597;SDS011;62026;39.230;9.122;2023-09-30T08:07:42;6.80;;;3.60;;
67597;SDS011;62026;39.230;9.122;2023-09-30T08:10:09;5.55;;;2.70;;
67597;SDS011;62026;39.230;9.122;2023-09-30T08:12:38;4.38;;;2.70;;
67597;SDS011;62026;39.230;9.122;2023-09-30T08:15:06;5.07;;;2.35;;
67597;SDS011;62026;39.230;9.122;2023-09-30T08:17:32;6.13;;;2.55;;
67597;SDS011;62026;39.230;9.122;2023-09-30T08:19:59;8.02;;;2.88;;
67597;SDS011;62026;39.230;9.122;2023-09-30T08:22:25;7.60;;;3.33;;
67597;SDS011;62026;39.230;9.122;2023-09-30T08:24:53;4.38;;;2.45;;
67597;SDS011;62026;39.230;9.122;2023-09-30T08:27:20;7.03;;;2.45;;
67597;SDS011;62026;39.230;9.122;2023-09-30T08:29:46;5.93;;;2.63;;
67597;SDS011;62026;39.230;9.122;2023-09-30T08:32:11;8.05;;;2.47;;
67597;SDS011;62026;39.230;9.122;2023-09-30T08:34:37;4.43;;;2.40;;
67597;SDS011;62026;39.230;9.122;2023-09-30T08:37:04;6.80;;;2.10;;
67597;SDS011;62026;39.230;9.122;2023-09-30T08:39:30;6.00;;;2.20;;
67597;SDS011;62026;39.230;9.122;2023-09-30T08:41:56;4.63;;;2.10;;
67597;SDS011;62026;39.230;9.122;2023-09-30T08:44:23;7.72;;;2.72;;
67597;SDS011;62026;39.230;9.122;2023-09-30T08:46:49;3.90;;;2.20;;
67597;SDS011;62026;39.230;9.122;2023-09-30T08:49:18;3.58;;;1.90;;
67597;SDS011;62026;39.230;9.122;2023-09-30T08:51:45;4.60;;;2.00;;
67597;SDS011;62026;39.230;9.122;2023-09-30T08:54:14;4.00;;;1.95;;
67597;SDS011;62026;39.230;9.122;2023-09-30T08:56:40;7.95;;;2.58;;
67597;SDS011;62026;39.230;9.122;2023-09-30T08:59:11;8.30;;;2.40;;
67597;SDS011;62026;39.230;9.122;2023-09-30T09:01:39;5.00;;;1.83;;
67597;SDS011;62026;39.230;9.122;2023-09-30T09:04:05;2.40;;;1.50;;
67597;SDS011;62026;39.230;9.122;2023-09-30T09:06:32;4.35;;;1.52;;
67597;SDS011;62026;39.230;9.122;2023-09-30T09:09:14;3.20;;;1.65;;
67597;SDS011;62026;39.230;9.122;2023-09-30T09:11:42;7.32;;;1.95;;
67597;SDS011;62026;39.230;9.122;2023-09-30T09:14:09;6.75;;;2.00;;
67597;SDS011;62026;39.230;9.122;2023-09-30T09:16:35;4.88;;;1.85;;
67597;SDS011;62026;39.230;9.122;2023-09-30T09:19:14;5.22;;;2.10;;
67597;SDS011;62026;39.230;9.122;2023-09-30T09:21:52;3.30;;;1.33;;
67597;SDS011;62026;39.230;9.122;2023-09-30T09:24:36;3.08;;;1.50;;
67597;SDS011;62026;39.230;9.122;2023-09-30T09:27:08;2.33;;;1.30;;
67597;SDS011;62026;39.230;9.122;2023-09-30T09:29:41;1.95;;;1.25;;
67597;SDS011;62026;39.230;9.122;2023-09-30T09:34:41;2.50;;;1.30;;
67597;SDS011;62026;39.230;9.122;2023-09-30T09:37:24;2.97;;;1.30;;
67597;SDS011;62026;39.230;9.122;2023-09-30T09:42:27;2.55;;;1.40;;
67597;SDS011;62026;39.230;9.122;2023-09-30T09:44:59;2.10;;;1.33;;
67597;SDS011;62026;39.230;9.122;2023-09-30T09:47:31;6.03;;;1.40;;
67597;SDS011;62026;39.230;9.122;2023-09-30T09:49:58;2.35;;;1.20;;
67597;SDS011;62026;39.230;9.122;2023-09-30T09:52:27;2.65;;;1.30;;
67597;SDS011;62026;39.230;9.122;2023-09-30T09:54:55;4.78;;;1.70;;
67597;SDS011;62026;39.230;9.122;2023-09-30T09:57:22;2.80;;;1.20;;
67597;SDS011;62026;39.230;9.122;2023-09-30T09:59:51;3.30;;;1.38;;
67597;SDS011;62026;39.230;9.122;2023-09-30T10:02:19;6.88;;;1.75;;
67597;SDS011;62026;39.230;9.122;2023-09-30T10:04:46;7.68;;;1.38;;
67597;SDS011;62026;39.230;9.122;2023-09-30T10:07:19;5.40;;;1.73;;
67597;SDS011;62026;39.230;9.122;2023-09-30T10:09:50;3.63;;;1.40;;
67597;SDS011;62026;39.230;9.122;2023-09-30T10:12:18;4.40;;;1.88;;
67597;SDS011;62026;39.230;9.122;2023-09-30T10:14:48;3.97;;;1.58;;
67597;SDS011;62026;39.230;9.122;2023-09-30T10:17:14;6.00;;;1.52;;
67597;SDS011;62026;39.230;9.122;2023-09-30T10:20:03;4.93;;;1.70;;
67597;SDS011;62026;39.230;9.122;2023-09-30T10:24:59;2.55;;;1.60;;
67597;SDS011;62026;39.230;9.122;2023-09-30T10:35:17;4.78;;;1.92;;
67597;SDS011;62026;39.230;9.122;2023-09-30T10:37:44;3.17;;;1.63;;
67597;SDS011;62026;39.230;9.122;2023-09-30T10:40:26;3.15;;;2.15;;
67597;SDS011;62026;39.230;9.122;2023-09-30T10:42:56;5.93;;;1.70;;
67597;SDS011;62026;39.230;9.122;2023-09-30T10:45:42;3.05;;;1.70;;
67597;SDS011;62026;39.230;9.122;2023-09-30T10:48:55;5.38;;;1.77;;
67597;SDS011;62026;39.230;9.122;2023-09-30T10:50:57;3.35;;;1.67;;
67597;SDS011;62026;39.230;9.122;2023-09-30T10:53:29;5.55;;;2.03;;
67597;SDS011;62026;39.230;9.122;2023-09-30T11:01:21;5.85;;;2.00;;
67597;SDS011;62026;39.230;9.122;2023-09-30T11:03:49;3.75;;;1.85;;
67597;SDS011;62026;39.230;9.122;2023-09-30T11:06:23;4.15;;;1.90;;
67597;SDS011;62026;39.230;9.122;2023-09-30T11:08:53;5.70;;;2.20;;
67597;SDS011;62026;39.230;9.122;2023-09-30T11:11:37;4.55;;;1.58;;
67597;SDS011;62026;39.230;9.122;2023-09-30T11:14:24;5.45;;;2.10;;
67597;SDS011;62026;39.230;9.122;2023-09-30T11:16:59;7.03;;;2.35;;
67597;SDS011;62026;39.230;9.122;2023-09-30T11:22:22;3.25;;;1.98;;
67597;SDS011;62026;39.230;9.122;2023-09-30T11:24:48;5.32;;;3.33;;
67597;SDS011;62026;39.230;9.122;2023-09-30T11:27:22;6.72;;;3.55;;
67597;SDS011;62026;39.230;9.122;2023-09-30T11:29:51;5.93;;;3.38;;
67597;SDS011;62026;39.230;9.122;2023-09-30T11:32:24;5.85;;;3.80;;
67597;SDS011;62026;39.230;9.122;2023-09-30T11:34:52;4.00;;;2.10;;
67597;SDS011;62026;39.230;9.122;2023-09-30T11:37:18;5.25;;;2.00;;
67597;SDS011;62026;39.230;9.122;2023-09-30T11:39:44;7.43;;;2.05;;
67597;SDS011;62026;39.230;9.122;2023-09-30T11:42:17;4.80;;;3.08;;
67597;SDS011;62026;39.230;9.122;2023-09-30T11:44:45;5.18;;;1.92;;
67597;SDS011;62026;39.230;9.122;2023-09-30T11:47:15;2.72;;;1.80;;
67597;SDS011;62026;39.230;9.122;2023-09-30T11:49:42;7.70;;;2.25;;
67597;SDS011;62026;39.230;9.122;2023-09-30T11:52:14;3.78;;;1.90;;
67597;SDS011;62026;39.230;9.122;2023-09-30T11:54:41;6.95;;;2.28;;
67597;SDS011;62026;39.230;9.122;2023-09-30T11:57:10;7.70;;;2.13;;
67597;SDS011;62026;39.230;9.122;2023-09-30T11:59:41;7.83;;;2.40;;
67597;SDS011;62026;39.230;9.122;2023-09-30T12:02:09;6.00;;;2.35;;
67597;SDS011;62026;39.230;9.122;2023-09-30T12:04:36;4.88;;;2.08;;
67597;SDS011;62026;39.230;9.122;2023-09-30T12:07:03;7.63;;;2.30;;
67597;SDS011;62026;39.230;9.122;2023-09-30T12:09:32;4.93;;;2.22;;
67597;SDS011;62026;39.230;9.122;2023-09-30T12:12:00;4.05;;;2.10;;
67597;SDS011;62026;39.230;9.122;2023-09-30T12:14:27;3.60;;;2.08;;
67597;SDS011;62026;39.230;9.122;2023-09-30T12:16:55;6.75;;;2.45;;
67597;SDS011;62026;39.230;9.122;2023-09-30T12:19:21;4.20;;;2.03;;
67597;SDS011;62026;39.230;9.122;2023-09-30T12:21:47;10.05;;;2.13;;
67597;SDS011;62026;39.230;9.122;2023-09-30T12:24:14;4.43;;;2.30;;
67597;SDS011;62026;39.230;9.122;2023-09-30T12:26:45;6.18;;;2.22;;
67597;SDS011;62026;39.230;9.122;2023-09-30T12:29:15;10.48;;;2.10;;
67597;SDS011;62026;39.230;9.122;2023-09-30T12:31:43;4.45;;;2.20;;
67597;SDS011;62026;39.230;9.122;2023-09-30T12:34:17;3.30;;;1.70;;
67597;SDS011;62026;39.230;9.122;2023-09-30T12:36:43;11.20;;;2.10;;
67597;SDS011;62026;39.230;9.122;2023-09-30T12:39:10;4.93;;;2.03;;
67597;SDS011;62026;39.230;9.122;2023-09-30T12:44:04;5.72;;;1.80;;
67597;SDS011;62026;39.230;9.122;2023-09-30T12:46:35;4.60;;;1.92;;
67597;SDS011;62026;39.230;9.122;2023-09-30T12:49:04;6.82;;;2.10;;
67597;SDS011;62026;39.230;9.122;2023-09-30T12:51:35;3.85;;;1.90;;
67597;SDS011;62026;39.230;9.122;2023-09-30T12:54:04;4.70;;;2.45;;
67597;SDS011;62026;39.230;9.122;2023-09-30T12:56:30;5.30;;;2.45;;
67597;SDS011;62026;39.230;9.122;2023-09-30T12:58:57;6.65;;;2.00;;
67597;SDS011;62026;39.230;9.122;2023-09-30T13:01:24;3.83;;;1.70;;
67597;SDS011;62026;39.230;9.122;2023-09-30T13:03:50;5.15;;;2.03;;
67597;SDS011;62026;39.230;9.122;2023-09-30T13:06:17;6.32;;;2.03;;
67597;SDS011;62026;39.230;9.122;2023-09-30T13:08:45;3.40;;;1.83;;
67597;SDS011;62026;39.230;9.122;2023-09-30T13:11:11;2.95;;;1.75;;
67597;SDS011;62026;39.230;9.122;2023-09-30T13:13:39;5.03;;;1.98;;
67597;SDS011;62026;39.230;9.122;2023-09-30T13:16:06;4.43;;;1.70;;
67597;SDS011;62026;39.230;9.122;2023-09-30T13:18:35;4.68;;;2.00;;
67597;SDS011;62026;39.230;9.122;2023-09-30T13:21:01;4.80;;;1.80;;
67597;SDS011;62026;39.230;9.122;2023-09-30T13:23:31;2.00;;;1.35;;
67597;SDS011;62026;39.230;9.122;2023-09-30T13:25:58;5.80;;;1.70;;
67597;SDS011;62026;39.230;9.122;2023-09-30T13:28:24;6.93;;;2.10;;
67597;SDS011;62026;39.230;9.122;2023-09-30T13:30:53;3.40;;;1.67;;
67597;SDS011;62026;39.230;9.122;2023-09-30T13:33:19;4.90;;;1.80;;
67597;SDS011;62026;39.230;9.122;2023-09-30T13:35:46;3.25;;;1.90;;
67597;SDS011;62026;39.230;9.122;2023-09-30T13:38:12;5.32;;;2.00;;
67597;SDS011;62026;39.230;9.122;2023-09-30T13:40:39;5.60;;;2.08;;
67597;SDS011;62026;39.230;9.122;2023-09-30T13:43:05;4.05;;;1.65;;
67597;SDS011;62026;39.230;9.122;2023-09-30T13:45:31;5.35;;;1.80;;
67597;SDS011;62026;39.230;9.122;2023-09-30T13:47:57;2.33;;;1.50;;
67597;SDS011;62026;39.230;9.122;2023-09-30T13:50:23;7.93;;;2.00;;
67597;SDS011;62026;39.230;9.122;2023-09-30T13:52:49;2.30;;;1.38;;
67597;SDS011;62026;39.230;9.122;2023-09-30T13:55:16;8.52;;;1.92;;
67597;SDS011;62026;39.230;9.122;2023-09-30T13:57:47;4.63;;;1.77;;
67597;SDS011;62026;39.230;9.122;2023-09-30T14:00:14;8.25;;;2.00;;
67597;SDS011;62026;39.230;9.122;2023-09-30T14:02:41;3.65;;;1.77;;
67597;SDS011;62026;39.230;9.122;2023-09-30T14:05:08;4.13;;;1.70;;
67597;SDS011;62026;39.230;9.122;2023-09-30T14:07:36;6.93;;;1.85;;
67597;SDS011;62026;39.230;9.122;2023-09-30T14:10:02;3.33;;;1.83;;
67597;SDS011;62026;39.230;9.122;2023-09-30T14:12:29;7.50;;;1.70;;
67597;SDS011;62026;39.230;9.122;2023-09-30T14:14:56;3.58;;;1.90;;
67597;SDS011;62026;39.230;9.122;2023-09-30T14:17:23;5.07;;;2.17;;
67597;SDS011;62026;39.230;9.122;2023-09-30T14:19:50;3.92;;;1.73;;
67597;SDS011;62026;39.230;9.122;2023-09-30T14:22:17;3.72;;;1.90;;
67597;SDS011;62026;39.230;9.122;2023-09-30T14:24:44;6.55;;;1.80;;
67597;SDS011;62026;39.230;9.122;2023-09-30T14:27:10;7.13;;;1.70;;
67597;SDS011;62026;39.230;9.122;2023-09-30T14:29:39;8.05;;;2.03;;
67597;SDS011;62026;39.230;9.122;2023-09-30T14:32:05;5.55;;;1.90;;
67597;SDS011;62026;39.230;9.122;2023-09-30T14:34:32;3.58;;;1.58;;
67597;SDS011;62026;39.230;9.122;2023-09-30T14:36:58;3.88;;;1.85;;
67597;SDS011;62026;39.230;9.122;2023-09-30T14:39:25;10.50;;;2.47;;
67597;SDS011;62026;39.230;9.122;2023-09-30T14:41:51;5.47;;;2.10;;
67597;SDS011;62026;39.230;9.122;2023-09-30T14:44:18;3.88;;;2.13;;
67597;SDS011;62026;39.230;9.122;2023-09-30T14:46:47;3.33;;;1.80;;
67597;SDS011;62026;39.230;9.122;2023-09-30T14:49:13;3.75;;;1.80;;
67597;SDS011;62026;39.230;9.122;2023-09-30T14:51:40;5.68;;;2.15;;
67597;SDS011;62026;39.230;9.122;2023-09-30T14:54:06;4.65;;;2.00;;
67597;SDS011;62026;39.230;9.122;2023-09-30T14:56:32;5.40;;;1.80;;
67597;SDS011;62026;39.230;9.122;2023-09-30T14:58:58;7.25;;;2.05;;
67597;SDS011;62026;39.230;9.122;2023-09-30T15:01:24;3.25;;;1.92;;
67597;SDS011;62026;39.230;9.122;2023-09-30T15:03:51;5.63;;;2.00;;
67597;SDS011;62026;39.230;9.122;2023-09-30T15:06:17;4.28;;;1.98;;
67597;SDS011;62026;39.230;9.122;2023-09-30T15:08:43;3.42;;;1.80;;
67597;SDS011;62026;39.230;9.122;2023-09-30T15:11:12;3.95;;;1.77;;
67597;SDS011;62026;39.230;9.122;2023-09-30T15:13:43;4.90;;;1.67;;
67597;SDS011;62026;39.230;9.122;2023-09-30T15:16:20;5.55;;;2.13;;